createdAt,value
2018-02-03T00:00:54.972Z,3.70
2018-02-03T00:03:24.289Z,3.70
2018-02-03T00:05:53.233Z,3.70
2018-02-03T00:08:21.667Z,3.80
2018-02-03T00:10:50.037Z,3.80
2018-02-03T00:13:18.546Z,3.70
2018-02-03T00:15:46.961Z,3.70
2018-02-03T00:18:30.775Z,3.80
2018-02-03T00:21:07.933Z,3.80
2018-02-03T00:23:37.597Z,3.80
2018-02-03T00:26:05.952Z,3.70
2018-02-03T00:28:34.952Z,3.70
2018-02-03T00:31:03.763Z,3.70
2018-02-03T00:33:33.290Z,3.60
2018-02-03T00:36:02.846Z,3.60
2018-02-03T00:38:31.724Z,3.60
2018-02-03T00:41:01.638Z,3.60
2018-02-03T00:43:30.429Z,3.60
2018-02-03T00:46:07.718Z,3.60
2018-02-03T00:48:46.081Z,3.50
2018-02-03T00:51:20.041Z,3.50
2018-02-03T00:53:54.555Z,3.50
2018-02-03T00:56:35.904Z,3.50
2018-02-03T00:59:04.928Z,3.50
2018-02-03T01:01:33.323Z,3.50
2018-02-03T01:04:01.688Z,3.50
2018-02-03T01:06:30.372Z,3.50
2018-02-03T01:08:59.367Z,3.50
2018-02-03T01:11:28.259Z,3.50
2018-02-03T01:13:57.125Z,3.50
2018-02-03T01:16:25.825Z,3.60
2018-02-03T01:18:54.516Z,3.60
2018-02-03T01:21:22.892Z,3.60
2018-02-03T01:23:51.361Z,3.70
2018-02-03T01:26:20.169Z,3.70
2018-02-03T01:28:48.958Z,3.70
2018-02-03T01:31:17.848Z,3.70
2018-02-03T01:33:48.166Z,3.80
2018-02-03T01:36:17.060Z,3.80
2018-02-03T01:38:45.449Z,3.80
2018-02-03T01:41:13.818Z,3.80
2018-02-03T01:43:42.196Z,3.80
2018-02-03T01:46:10.549Z,3.80
2018-02-03T01:48:39.009Z,3.80
2018-02-03T01:51:08.136Z,3.80
2018-02-03T01:53:36.613Z,3.80
2018-02-03T01:56:04.965Z,3.80
2018-02-03T01:58:34.085Z,3.70
2018-02-03T02:01:02.484Z,3.70
2018-02-03T02:03:30.857Z,3.60
2018-02-03T02:05:59.236Z,3.60
2018-02-03T02:08:27.593Z,3.70
2018-02-03T02:10:56.185Z,3.60
2018-02-03T02:13:31.020Z,3.70
2018-02-03T02:15:59.989Z,3.60
2018-02-03T02:18:28.344Z,3.60
2018-02-03T02:20:57.461Z,3.60
2018-02-03T02:23:25.836Z,3.60
2018-02-03T02:25:54.961Z,3.40
2018-02-03T02:28:23.351Z,3.40
2018-02-03T02:30:51.710Z,3.30
2018-02-03T02:33:20.197Z,3.20
2018-02-03T02:35:48.562Z,3.20
2018-02-03T02:38:16.926Z,3.20
2018-02-03T02:40:46.085Z,3.40
2018-02-03T02:43:15.209Z,3.40
2018-02-03T02:45:44.365Z,3.30
2018-02-03T02:48:12.721Z,3.30
2018-02-03T02:50:41.289Z,3.40
2018-02-03T02:53:09.688Z,3.40
2018-02-03T02:55:38.042Z,3.50
2018-02-03T02:58:06.416Z,3.50
2018-02-03T03:00:34.768Z,3.60
2018-02-03T03:03:03.160Z,3.60
2018-02-03T03:05:32.289Z,3.70
2018-02-03T03:08:00.805Z,3.70
2018-02-03T03:10:29.172Z,3.70
2018-02-03T03:12:57.526Z,3.60
2018-02-03T03:15:25.908Z,3.60
2018-02-03T03:17:54.268Z,3.50
2018-02-03T03:20:22.643Z,3.40
2018-02-03T03:22:51.047Z,3.40
2018-02-03T03:25:19.461Z,3.40
2018-02-03T03:27:47.824Z,3.30
2018-02-03T03:30:16.178Z,3.10
2018-02-03T03:32:44.554Z,3.20
2018-02-03T03:35:12.917Z,3.20
2018-02-03T03:37:41.298Z,3.30
2018-02-03T03:40:09.661Z,3.30
2018-02-03T03:42:38.820Z,3.40
2018-02-03T03:45:07.225Z,3.40
2018-02-03T03:47:36.348Z,3.50
2018-02-03T03:50:04.724Z,3.50
2018-02-03T03:52:33.084Z,3.50
2018-02-03T03:55:02.244Z,3.40
2018-02-03T03:57:30.600Z,3.40
2018-02-03T03:59:59.308Z,3.50
2018-02-03T04:02:27.664Z,3.50
2018-02-03T04:04:56.023Z,3.60
2018-02-03T04:07:24.443Z,3.60
2018-02-03T04:09:52.800Z,3.60
2018-02-03T04:12:21.180Z,3.70
2018-02-03T04:14:49.539Z,3.70
2018-02-03T04:17:17.937Z,3.60
2018-02-03T04:19:46.328Z,3.60
2018-02-03T04:22:14.679Z,3.70
2018-02-03T04:24:43.052Z,3.70
2018-02-03T04:27:11.409Z,3.70
2018-02-03T04:29:39.788Z,3.70
2018-02-03T04:32:08.148Z,3.60
2018-02-03T04:34:37.337Z,3.50
2018-02-03T04:37:05.698Z,3.50
2018-02-03T04:39:34.061Z,3.60
2018-02-03T04:42:02.445Z,3.60
2018-02-03T04:44:30.810Z,3.60
2018-02-03T04:46:59.184Z,3.60
2018-02-03T04:49:27.554Z,3.50
2018-02-03T04:51:56.137Z,3.50
2018-02-03T04:54:24.650Z,3.60
2018-02-03T04:56:53.033Z,3.50
2018-02-03T04:59:21.412Z,3.50
2018-02-03T05:01:49.776Z,3.50
2018-02-03T05:04:18.162Z,3.50
2018-02-03T05:06:46.520Z,3.50
2018-02-03T05:09:15.065Z,3.50
2018-02-03T05:11:44.185Z,3.40
2018-02-03T05:14:12.537Z,3.40
2018-02-03T05:16:41.688Z,3.30
2018-02-03T05:19:10.053Z,3.30
2018-02-03T05:21:38.433Z,3.30
2018-02-03T05:24:06.808Z,3.30
2018-02-03T05:26:35.184Z,3.30
2018-02-03T05:29:03.568Z,3.20
2018-02-03T05:31:31.934Z,3.20
2018-02-03T05:34:00.314Z,3.20
2018-02-03T05:36:28.674Z,3.10
2018-02-03T05:38:57.805Z,3.10
2018-02-03T05:41:26.276Z,3.20
2018-02-03T05:43:54.689Z,3.10
2018-02-03T05:46:23.057Z,3.10
2018-02-03T05:48:51.436Z,3.10
2018-02-03T05:51:20.580Z,3.00
2018-02-03T05:53:48.941Z,3.00
2018-02-03T05:56:18.114Z,3.10
2018-02-03T05:58:46.468Z,3.10
2018-02-03T06:01:15.031Z,3.20
2018-02-03T06:03:43.389Z,3.20
2018-02-03T06:06:11.740Z,3.20
2018-02-03T06:08:40.117Z,3.20
2018-02-03T06:11:08.480Z,3.20
2018-02-03T06:13:36.865Z,3.20
2018-02-03T06:16:06.741Z,3.10
2018-02-03T06:18:35.228Z,3.10
2018-02-03T06:21:03.597Z,3.10
2018-02-03T06:23:31.961Z,3.20
2018-02-03T06:26:00.344Z,3.20
2018-02-03T06:28:28.705Z,3.30
2018-02-03T06:30:58.374Z,3.20
2018-02-03T06:33:26.742Z,3.20
2018-02-03T06:35:55.405Z,3.20
2018-02-03T06:38:23.760Z,3.20
2018-02-03T06:40:52.125Z,3.20
2018-02-03T06:43:21.283Z,3.20
2018-02-03T06:45:49.645Z,3.20
2018-02-03T06:48:18.068Z,3.20
2018-02-03T06:50:47.194Z,3.30
2018-02-03T06:53:15.993Z,3.30
2018-02-03T06:55:44.364Z,3.30
2018-02-03T06:58:12.727Z,3.30
2018-02-03T07:00:41.958Z,3.40
2018-02-03T07:03:10.324Z,3.40
2018-02-03T07:05:38.711Z,3.40
2018-02-03T07:08:07.108Z,3.40
2018-02-03T07:10:35.874Z,3.50
2018-02-03T07:13:04.233Z,3.40
2018-02-03T07:15:32.638Z,3.40
2018-02-03T07:18:01.030Z,3.50
2018-02-03T07:20:29.414Z,3.40
2018-02-03T07:22:57.797Z,3.40
2018-02-03T07:25:26.181Z,3.40
2018-02-03T07:27:54.645Z,3.40
2018-02-03T07:30:23.066Z,3.40
2018-02-03T07:32:52.169Z,3.40
2018-02-03T07:35:21.322Z,3.40
2018-02-03T07:37:49.688Z,3.40
2018-02-03T07:40:18.069Z,3.30
2018-02-03T07:42:46.429Z,3.30
2018-02-03T07:45:14.837Z,3.30
2018-02-03T07:47:43.209Z,3.30
2018-02-03T07:50:11.648Z,3.30
2018-02-03T07:52:40.031Z,3.30
2018-02-03T07:55:08.426Z,3.30
2018-02-03T07:57:36.831Z,3.40
2018-02-03T08:00:05.188Z,3.30
2018-02-03T08:02:33.770Z,3.30
2018-02-03T08:05:02.132Z,3.30
2018-02-03T08:07:30.509Z,3.40
2018-02-03T08:09:58.893Z,3.40
2018-02-03T08:12:27.254Z,3.40
2018-02-03T08:14:55.653Z,3.50
2018-02-03T08:17:24.020Z,3.50
2018-02-03T08:19:52.428Z,3.50
2018-02-03T08:22:20.806Z,3.50
2018-02-03T08:24:49.188Z,3.50
2018-02-03T08:27:17.572Z,3.50
2018-02-03T08:29:45.948Z,3.50
2018-02-03T08:32:14.341Z,3.50
2018-02-03T08:34:44.216Z,3.60
2018-02-03T08:37:12.621Z,3.60
2018-02-03T08:39:40.981Z,3.60
2018-02-03T08:42:09.352Z,3.60
2018-02-03T08:44:37.770Z,3.60
2018-02-03T08:47:06.893Z,3.40
2018-02-03T08:49:36.049Z,3.40
2018-02-03T08:52:04.425Z,3.40
2018-02-03T08:54:32.980Z,3.40
2018-02-03T08:57:01.345Z,3.40
2018-02-03T08:59:29.716Z,3.30
2018-02-03T09:01:59.572Z,3.30
2018-02-03T09:04:27.928Z,3.30
2018-02-03T09:06:56.319Z,3.40
2018-02-03T09:09:24.689Z,3.30
2018-02-03T09:12:06.274Z,3.40
2018-02-03T09:14:34.638Z,3.30
2018-02-03T09:17:03.021Z,3.30
2018-02-03T09:19:31.400Z,3.20
2018-02-03T09:21:59.773Z,3.30
2018-02-03T09:24:28.275Z,3.20
2018-02-03T09:26:56.628Z,3.20
2018-02-03T09:29:25.210Z,3.30
2018-02-03T09:31:53.621Z,3.40
2018-02-03T09:34:22.101Z,3.40
2018-02-03T09:36:50.516Z,3.50
2018-02-03T09:39:18.880Z,3.40
2018-02-03T09:41:47.299Z,3.40
2018-02-03T09:44:16.436Z,3.40
2018-02-03T09:46:45.322Z,3.40
2018-02-03T09:49:13.680Z,3.30
2018-02-03T09:51:42.042Z,3.20
2018-02-03T09:54:11.192Z,3.30
2018-02-03T09:56:39.546Z,3.20
2018-02-03T09:59:08.038Z,3.30
2018-02-03T10:01:36.683Z,3.40
2018-02-03T10:04:05.997Z,3.50
2018-02-03T10:06:34.377Z,3.50
2018-02-03T10:09:03.040Z,3.60
2018-02-03T10:11:32.243Z,3.60
2018-02-03T10:14:01.378Z,3.60
2018-02-03T10:16:29.806Z,3.60
2018-02-03T10:18:59.057Z,3.60
2018-02-03T10:21:27.592Z,3.60
2018-02-03T10:23:56.714Z,3.60
2018-02-03T10:26:25.656Z,3.60
2018-02-03T10:28:54.928Z,3.70
2018-02-03T10:31:24.546Z,3.70
2018-02-03T10:33:52.997Z,3.70
2018-02-03T10:36:22.284Z,3.70
2018-02-03T10:38:51.148Z,3.60
2018-02-03T10:41:20.882Z,3.60
2018-02-03T10:43:49.609Z,3.70
2018-02-03T10:46:18.464Z,3.80
2018-02-03T10:48:46.849Z,3.90
2018-02-03T10:51:15.260Z,4.00
2018-02-03T10:53:43.617Z,4.20
2018-02-03T10:56:12.103Z,4.30
2018-02-03T10:58:40.509Z,4.30
2018-02-03T11:01:11.160Z,4.50
2018-02-03T11:03:41.141Z,4.50
2018-02-03T11:06:09.519Z,4.50
2018-02-03T11:08:37.937Z,4.50
2018-02-03T11:11:07.078Z,4.40
2018-02-03T11:13:35.564Z,4.40
2018-02-03T11:16:03.945Z,4.50
2018-02-03T11:18:32.732Z,4.40
2018-02-03T11:21:01.317Z,4.50
2018-02-03T11:23:29.712Z,4.40
2018-02-03T11:25:58.094Z,4.40
2018-02-03T11:28:26.479Z,4.20
2018-02-03T11:30:54.870Z,4.30
2018-02-03T11:33:23.229Z,4.30
2018-02-03T11:35:51.629Z,4.30
2018-02-03T11:38:21.336Z,4.40
2018-02-03T11:40:49.795Z,4.40
2018-02-03T11:43:18.189Z,4.50
2018-02-03T11:45:47.451Z,4.60
2018-02-03T11:48:16.751Z,4.70
2018-02-03T11:50:45.385Z,4.70
2018-02-03T11:53:14.840Z,4.80
2018-02-03T11:55:43.578Z,4.80
2018-02-03T11:58:12.927Z,4.80
2018-02-03T12:00:42.389Z,4.70
2018-02-03T12:03:11.916Z,4.60
2018-02-03T12:05:40.339Z,4.60
2018-02-03T12:08:09.614Z,4.60
2018-02-03T12:10:40.688Z,4.50
2018-02-03T12:13:09.649Z,4.50
2018-02-03T12:15:38.228Z,4.50
2018-02-03T12:18:06.616Z,4.40
2018-02-03T12:20:35.016Z,4.40
2018-02-03T12:23:03.450Z,4.40
2018-02-03T12:25:32.065Z,4.40
2018-02-03T12:28:01.591Z,4.50
2018-02-03T12:30:29.991Z,4.40
2018-02-03T12:32:59.163Z,4.50
2018-02-03T12:35:27.620Z,4.50
2018-02-03T12:37:56.029Z,4.70
2018-02-03T12:40:25.199Z,4.80
2018-02-03T12:42:53.561Z,4.80
2018-02-03T12:45:21.950Z,4.80
2018-02-03T12:47:50.487Z,4.80
2018-02-03T12:50:19.685Z,4.70
2018-02-03T12:52:49.045Z,4.60
2018-02-03T12:55:17.874Z,4.70
2018-02-03T12:57:46.284Z,4.70
2018-02-03T13:00:14.887Z,4.70
2018-02-03T13:02:43.293Z,4.70
2018-02-03T13:05:12.061Z,4.70
2018-02-03T13:07:40.493Z,4.70
2018-02-03T13:10:09.036Z,4.70
2018-02-03T13:12:38.396Z,5.10
2018-02-03T13:15:06.761Z,5.10
2018-02-03T13:17:35.141Z,5.40
2018-02-03T13:20:03.633Z,5.50
2018-02-03T13:22:31.997Z,5.60
2018-02-03T13:25:00.377Z,5.60
2018-02-03T13:27:28.788Z,5.40
2018-02-03T13:29:57.428Z,5.30
2018-02-03T13:32:26.552Z,5.00
2018-02-03T13:34:54.931Z,5.00
2018-02-03T13:37:23.385Z,4.90
2018-02-03T13:39:53.487Z,4.80
2018-02-03T13:42:22.628Z,4.80
2018-02-03T13:44:51.325Z,4.70
2018-02-03T13:47:20.256Z,4.80
2018-02-03T13:49:49.717Z,4.90
2018-02-03T13:52:19.073Z,5.00
2018-02-03T13:54:47.489Z,5.00
2018-02-03T13:57:16.128Z,5.00
2018-02-03T13:59:45.483Z,5.00
2018-02-03T14:02:13.918Z,5.00
2018-02-03T14:04:43.625Z,5.10
2018-02-03T14:07:12.752Z,5.10
2018-02-03T14:09:41.516Z,5.10
2018-02-03T14:12:10.250Z,5.10
2018-02-03T14:14:38.824Z,5.00
2018-02-03T14:17:07.212Z,5.00
2018-02-03T14:19:36.572Z,5.10
2018-02-03T14:22:05.393Z,5.20
2018-02-03T14:24:39.335Z,5.20
2018-02-03T14:27:08.003Z,5.10
2018-02-03T14:29:36.376Z,5.20
2018-02-03T14:32:05.126Z,5.20
2018-02-03T14:34:33.616Z,5.20
2018-02-03T14:37:02.585Z,5.20
2018-02-03T14:39:31.573Z,5.20
2018-02-03T14:42:00.205Z,5.20
2018-02-03T14:44:28.592Z,5.10
2018-02-03T14:46:57.069Z,5.00
2018-02-03T14:49:25.543Z,5.00
2018-02-03T14:51:54.134Z,4.90
2018-02-03T14:54:23.517Z,5.00
2018-02-03T14:56:51.980Z,5.00
2018-02-03T14:59:20.345Z,5.00
2018-02-03T15:01:49.681Z,5.00
2018-02-03T15:04:18.408Z,5.00
2018-02-03T15:06:46.852Z,4.90
2018-02-03T15:09:15.484Z,4.80
2018-02-03T15:11:44.335Z,4.70
2018-02-03T15:14:12.848Z,4.70
2018-02-03T15:16:49.790Z,4.70
2018-02-03T15:19:18.788Z,4.70
2018-02-03T15:21:47.749Z,4.60
2018-02-03T15:24:17.841Z,4.60
2018-02-03T15:26:47.495Z,4.60
2018-02-03T15:29:26.699Z,4.60
2018-02-03T15:31:57.674Z,4.70
2018-02-03T15:34:28.305Z,4.70
2018-02-03T15:36:57.312Z,4.70
2018-02-03T15:39:27.700Z,4.60
2018-02-03T15:41:59.217Z,4.60
2018-02-03T15:44:28.175Z,4.50
2018-02-03T15:46:58.498Z,4.50
2018-02-03T15:49:28.689Z,4.60
2018-02-03T15:51:58.529Z,4.60
2018-02-03T15:54:28.076Z,4.50
2018-02-03T15:56:59.036Z,4.40
2018-02-03T15:59:29.156Z,4.40
2018-02-03T16:01:59.048Z,4.50
2018-02-03T16:04:38.779Z,4.40
2018-02-03T16:07:19.659Z,4.40
2018-02-03T16:09:56.077Z,4.40
2018-02-03T16:12:26.942Z,4.50
2018-02-03T16:14:58.070Z,4.50
2018-02-03T16:17:29.053Z,4.40
2018-02-03T16:19:59.689Z,4.40
2018-02-03T16:22:29.937Z,4.50
2018-02-03T16:24:59.600Z,4.40
2018-02-03T16:27:29.356Z,4.50
2018-02-03T16:29:59.352Z,4.40
2018-02-03T16:32:29.450Z,4.40
2018-02-03T16:34:59.235Z,4.40
2018-02-03T16:37:28.847Z,4.40
2018-02-03T16:39:59.048Z,4.40
2018-02-03T16:42:29.632Z,4.40
2018-02-03T16:44:59.674Z,4.30
2018-02-03T16:47:28.058Z,4.20
2018-02-03T16:49:56.465Z,4.30
2018-02-03T16:52:24.841Z,4.20
2018-02-03T16:54:53.244Z,4.20
2018-02-03T16:57:21.604Z,4.20
2018-02-03T16:59:50.121Z,4.10
2018-02-03T17:02:19.331Z,3.70
2018-02-03T17:04:48.738Z,3.70
2018-02-03T17:07:17.197Z,3.70
2018-02-03T17:09:46.959Z,3.60
2018-02-03T17:12:15.385Z,3.50
2018-02-03T17:14:43.737Z,3.50
2018-02-03T17:17:12.397Z,3.50
2018-02-03T17:19:40.821Z,3.40
2018-02-03T17:22:09.950Z,3.20
2018-02-03T17:24:38.426Z,3.20
2018-02-03T17:27:06.880Z,3.00
2018-02-03T17:29:36.036Z,2.90
2018-02-03T17:32:05.244Z,2.90
2018-02-03T17:34:33.810Z,2.90
2018-02-03T17:37:07.645Z,3.00
2018-02-03T17:39:36.201Z,2.90
2018-02-03T17:42:04.666Z,3.00
2018-02-03T17:44:33.163Z,3.10
2018-02-03T17:47:06.749Z,3.10
2018-02-03T17:49:35.116Z,3.10
2018-02-03T17:52:03.580Z,3.10
2018-02-03T17:54:33.028Z,3.10
2018-02-03T17:57:07.456Z,3.10
2018-02-03T17:59:36.086Z,3.10
2018-02-03T18:02:05.694Z,3.10
2018-02-03T18:04:34.836Z,3.20
2018-02-03T18:07:05.192Z,3.10
2018-02-03T18:09:34.289Z,3.20
2018-02-03T18:12:02.673Z,3.20
2018-02-03T18:14:31.056Z,3.10
2018-02-03T18:16:59.416Z,3.10
2018-02-03T18:19:27.875Z,3.10
2018-02-03T18:21:56.248Z,3.10
2018-02-03T18:24:24.846Z,3.10
2018-02-03T18:26:53.628Z,3.10
2018-02-03T18:29:23.016Z,3.10
2018-02-03T18:31:51.584Z,3.10
2018-02-03T18:34:20.003Z,3.20
2018-02-03T18:36:48.352Z,3.20
2018-02-03T18:39:16.717Z,3.20
2018-02-03T18:41:45.270Z,3.20
2018-02-03T18:44:14.588Z,3.20
2018-02-03T18:46:43.472Z,3.20
2018-02-03T18:49:12.076Z,3.30
2018-02-03T18:51:40.441Z,3.20
2018-02-03T18:54:08.846Z,3.30
2018-02-03T18:56:37.304Z,3.20
2018-02-03T18:59:05.783Z,3.20
2018-02-03T19:01:34.181Z,3.20
2018-02-03T19:04:02.549Z,3.20
2018-02-03T19:08:11.061Z,3.20
2018-02-03T19:10:39.872Z,3.20
2018-02-03T19:13:08.319Z,3.20
2018-02-03T19:18:32.177Z,3.20
2018-02-03T19:21:00.735Z,3.30
2018-02-03T19:23:30.345Z,3.20
2018-02-03T19:25:58.748Z,3.10
2018-02-03T19:28:27.152Z,3.10
2018-02-03T19:30:56.304Z,3.20
2018-02-03T19:33:24.857Z,3.10
2018-02-03T19:35:53.373Z,3.10
2018-02-03T19:38:21.741Z,3.10
2018-02-03T19:40:53.253Z,3.10
2018-02-03T19:43:22.160Z,3.10
2018-02-03T19:45:50.540Z,3.10
2018-02-03T19:48:22.552Z,3.10
2018-02-03T19:50:51.881Z,3.10
2018-02-03T19:53:20.268Z,3.10
2018-02-03T19:55:49.411Z,3.20
2018-02-03T19:58:17.882Z,3.10
2018-02-03T20:00:46.365Z,3.20
2018-02-03T20:03:14.800Z,3.20
2018-02-03T20:05:43.945Z,3.20
2018-02-03T20:08:12.624Z,3.10
2018-02-03T20:10:42.087Z,3.10
2018-02-03T20:13:11.416Z,3.00
2018-02-03T20:15:39.816Z,3.00
2018-02-03T20:18:08.424Z,3.00
2018-02-03T20:20:36.861Z,3.10
2018-02-03T20:23:05.221Z,3.10
2018-02-03T20:25:33.730Z,3.20
2018-02-03T20:28:02.374Z,3.20
2018-02-03T20:30:31.626Z,3.20
2018-02-03T20:33:00.010Z,3.20
2018-02-03T20:35:28.377Z,3.20
2018-02-03T20:37:56.954Z,3.20
2018-02-03T20:40:25.383Z,3.10
2018-02-03T20:42:54.798Z,3.10
2018-02-03T20:45:23.522Z,3.10
2018-02-03T20:47:52.669Z,3.10
2018-02-03T20:50:21.838Z,3.10
2018-02-03T20:52:50.200Z,3.10
2018-02-03T20:55:19.084Z,3.10
2018-02-03T20:57:47.636Z,3.10
2018-02-03T21:00:16.441Z,3.10
2018-02-03T21:02:45.385Z,3.10
2018-02-03T21:05:14.565Z,3.10
2018-02-03T21:07:43.745Z,3.10
2018-02-03T21:10:13.739Z,3.00
2018-02-03T21:12:43.379Z,3.00
2018-02-03T21:15:13.013Z,3.00
2018-02-03T21:17:41.861Z,3.00
2018-02-03T21:20:10.755Z,3.00
2018-02-03T21:22:39.768Z,3.10
2018-02-03T21:25:08.153Z,3.10
2018-02-03T21:27:36.988Z,3.10
2018-02-03T21:30:05.695Z,3.10
2018-02-03T21:32:34.486Z,3.20
2018-02-03T21:35:03.069Z,3.20
2018-02-03T21:37:32.676Z,3.10
2018-02-03T21:40:01.903Z,3.10
2018-02-03T21:42:30.800Z,3.10
2018-02-03T21:44:59.450Z,3.10
2018-02-03T21:47:28.227Z,3.20
2018-02-03T21:49:56.849Z,3.20
2018-02-03T21:52:25.815Z,3.20
2018-02-03T21:54:54.705Z,3.10
2018-02-03T21:57:23.113Z,3.00
2018-02-03T21:59:51.509Z,3.00
2018-02-03T22:02:20.633Z,2.90
2018-02-03T22:04:49.139Z,2.90
2018-02-03T22:07:17.513Z,2.90
2018-02-03T22:09:46.084Z,2.80
2018-02-03T22:12:14.509Z,2.80
2018-02-03T22:14:46.135Z,2.80
2018-02-03T22:17:14.541Z,2.80
2018-02-03T22:19:42.904Z,2.80
2018-02-03T22:22:11.280Z,2.80
2018-02-03T22:24:39.633Z,2.80
2018-02-03T22:27:08.214Z,2.80
2018-02-03T22:29:36.580Z,2.90
2018-02-03T22:32:04.946Z,2.90
2018-02-03T22:34:34.102Z,3.00
2018-02-03T22:37:03.075Z,3.00
2018-02-03T22:39:31.659Z,3.00
2018-02-03T22:42:00.947Z,2.80
2018-02-03T22:44:29.648Z,2.80
2018-02-03T22:46:58.017Z,2.80
2018-02-03T22:49:26.377Z,2.80
2018-02-03T22:51:54.768Z,2.80
2018-02-03T22:54:23.137Z,2.80
2018-02-03T22:56:51.626Z,2.90
2018-02-03T22:59:21.246Z,3.00
2018-02-03T23:01:49.939Z,2.90
2018-02-03T23:04:19.814Z,2.90
2018-02-03T23:06:50.090Z,3.00
2018-02-03T23:09:20.041Z,2.90
2018-02-03T23:11:49.171Z,2.80
2018-02-03T23:14:21.898Z,2.80
2018-02-03T23:16:51.862Z,2.80
2018-02-03T23:19:21.492Z,2.80
2018-02-03T23:21:51.215Z,2.80
2018-02-03T23:24:19.653Z,2.80
2018-02-03T23:26:57.745Z,2.80
2018-02-03T23:29:39.795Z,2.80
2018-02-03T23:32:09.578Z,2.80
2018-02-03T23:34:38.065Z,2.80
2018-02-03T23:37:06.446Z,2.80
2018-02-03T23:39:35.019Z,2.80
2018-02-03T23:42:03.792Z,2.80
2018-02-03T23:44:32.711Z,2.80
2018-02-03T23:47:01.476Z,2.80
2018-02-03T23:49:30.074Z,2.90
2018-02-03T23:51:58.480Z,2.80
2018-02-03T23:54:26.841Z,2.80
2018-02-03T23:56:55.263Z,2.80
2018-02-03T23:59:25.917Z,2.70
